Eira — OJJP — position and weather

sailwx.info

Track history (hours):
 
Tides and Currents Weather Stations Pressure Air Temp Water Temp Dewpoint Dewpoint Depression Visibility Wind Speed Wind Dir Waves Ship Positions

Eira

Last reported at 2016-Feb-10 04:32 UTC. Time now 2016-Feb-10 04:47 UTC.
Position N 60°09' E 026°29'.

Length 157 m; draft 9.2 m.

Type: Cargo ship. MMSI: 230935000.

Date/timePositionNaut miles runAvg speedWind from/ knotsBaromVisibWave heightAir tempDewpointWater temp
2016-Feb-10 04:32N 60°09' E 026°29'0 0.0
2016-Feb-10 02:23N 60°09' E 026°29'0 0.0
2016-Feb-09 23:20N 60°09' E 026°29'0 0.0
2016-Feb-09 21:23N 60°09' E 026°29'0 0.0
2016-Feb-09 16:26N 60°09' E 026°29'0 0.0
2016-Feb-09 15:29N 60°09' E 026°29'0 0.0
2016-Feb-09 14:32N 60°09' E 026°29'0 0.0
2016-Feb-09 08:32N 60°09' E 026°29'0 0.0
2016-Feb-09 07:32N 60°09' E 026°29'1 0.1
2016-Feb-09 00:28N 60°08' E 026°28'0 0.0
2016-Feb-08 23:25N 60°08' E 026°28'0 0.0
2016-Feb-08 16:28N 60°08' E 026°28'0 0.0
2016-Feb-08 09:34N 60°08' E 026°29'1 0.6
2016-Feb-08 08:33N 60°08' E 026°30'10 9.9
2016-Feb-08 07:33N 60°03' E 026°47'27 8.9
2016-Feb-08 04:33N 60°10' E 027°38'9 9.4
2016-Feb-08 03:33N 60°11' E 027°57'1010.4
2016-Feb-08 02:34N 60°08' E 028°17'1010.3
2016-Feb-08 01:34N 60°03' E 028°35'1010.3
2016-Feb-08 00:33N 60°02' E 028°56'29 9.6
2016-Feb-07 21:33N 59°57' E 029°52'10 9.9
2016-Feb-07 20:33N 59°53' E 030°11'0 0.3
2016-Feb-07 19:31N 59°53' E 030°11'0 0.0
2016-Feb-07 18:31N 59°53' E 030°11'0 0.0
2016-Feb-07 17:31N 59°53' E 030°11'0 0.0
2016-Feb-07 16:31N 59°53' E 030°11'0 0.0
2016-Feb-07 15:28N 59°53' E 030°11'0 0.0
2016-Feb-07 14:31N 59°53' E 030°11'0 0.0
2016-Feb-07 13:28N 59°53' E 030°11'0 0.0
2016-Feb-07 12:28N 59°53' E 030°11'0 0.0
2016-Feb-07 11:31N 59°53' E 030°11'0 0.0
2016-Feb-07 10:31N 59°53' E 030°11'0 0.0
2016-Feb-07 09:31N 59°53' E 030°11'0 0.0
2016-Feb-07 08:31N 59°53' E 030°11'0 0.0
2016-Feb-07 07:31N 59°53' E 030°11'0 0.0
2016-Feb-07 06:31N 59°53' E 030°11'0 0.0
2016-Feb-07 05:31N 59°53' E 030°11'0 0.0
2016-Feb-07 04:31N 59°53' E 030°11'0 0.1
2016-Feb-07 03:33N 59°53' E 030°11'8 7.8
2016-Feb-07 02:33N 59°56' E 029°57'22 9.8
2016-Feb-07 00:18N 60°02' E 029°14'911.9
2016-Feb-06 23:31N 60°02' E 028°55'1212.5
2016-Feb-06 22:33N 60°03' E 028°31'1212.3
2016-Feb-06 21:33N 60°08' E 028°09'1212.5
2016-Feb-06 20:33N 60°10' E 027°44'1513.1
2016-Feb-06 19:26N 60°03' E 027°19'1212.1
2016-Feb-06 18:26N 59°58' E 026°56'1111.7
2016-Feb-06 17:29N 59°59' E 026°34'8 8.3
2016-Feb-06 16:34N 60°06' E 026°27'3 2.4
2016-Feb-06 15:27N 60°08' E 026°28'0 0.0
2016-Feb-06 14:33N 60°08' E 026°28'0 0.0
2016-Feb-06 13:33N 60°08' E 026°28'0 0.0
2016-Feb-06 12:33N 60°08' E 026°28'0 0.0
2016-Feb-06 11:27N 60°08' E 026°28'0 0.0
2016-Feb-06 10:30N 60°08' E 026°28'0 0.1
2016-Feb-06 09:33N 60°08' E 026°28'0 0.1
2016-Feb-06 08:33N 60°08' E 026°28'0 0.0
2016-Feb-06 07:33N 60°08' E 026°28'0 0.0
2016-Feb-06 06:33N 60°08' E 026°29'0 0.0
2016-Feb-06 05:33N 60°08' E 026°29'0 0.1
2016-Feb-06 04:33N 60°08' E 026°29'0 0.0
2016-Feb-06 03:33N 60°08' E 026°29'0 0.0
2016-Feb-06 02:33N 60°08' E 026°29'0 0.1
2016-Feb-06 01:33N 60°08' E 026°29'0 0.0
2016-Feb-06 00:33N 60°08' E 026°29'0 0.0
2016-Feb-05 23:33N 60°08' E 026°28'0 0.1
2016-Feb-05 22:33N 60°08' E 026°28'0 0.2
2016-Feb-05 21:33N 60°08' E 026°28'0 0.4
2016-Feb-05 20:33N 60°08' E 026°28'0 0.2
2016-Feb-05 19:31N 60°08' E 026°28'0 0.0
2016-Feb-05 18:31N 60°08' E 026°29'0 0.0
2016-Feb-05 17:31N 60°08' E 026°29'0 0.0
2016-Feb-05 16:31N 60°08' E 026°29'0 0.0
2016-Feb-05 15:31N 60°08' E 026°29'0 0.0
2016-Feb-05 14:31N 60°08' E 026°29'0 0.0
2016-Feb-05 13:31N 60°08' E 026°29'0 0.0
2016-Feb-05 12:31N 60°08' E 026°29'0 0.0
2016-Feb-05 11:31N 60°08' E 026°29'0 0.0
2016-Feb-05 10:31N 60°08' E 026°29'0 0.0
2016-Feb-05 09:31N 60°08' E 026°29'0 0.0
2016-Feb-05 08:31N 60°08' E 026°29'0 0.0
2016-Feb-05 07:31N 60°08' E 026°29'0 0.0
2016-Feb-05 06:28N 60°08' E 026°29'0 0.0
2016-Feb-05 05:31N 60°08' E 026°29'0 0.0
2016-Feb-05 04:31N 60°08' E 026°29'0 0.0
2016-Feb-05 03:28N 60°08' E 026°29'0 0.0
2016-Feb-05 02:31N 60°08' E 026°29'0 0.0
2016-Feb-05 01:31N 60°08' E 026°29'0 0.0
2016-Feb-05 00:31N 60°08' E 026°29'0 0.0
2016-Feb-04 23:31N 60°08' E 026°29'0 0.0
2016-Feb-04 22:28N 60°08' E 026°29'0 0.0
2016-Feb-04 21:31N 60°08' E 026°29'0 0.0
2016-Feb-04 20:31N 60°08' E 026°29'0 0.0
2016-Feb-04 19:31N 60°08' E 026°29'0 0.0
2016-Feb-04 18:31N 60°08' E 026°29'0 0.0
2016-Feb-04 17:31N 60°08' E 026°29'0 0.0
2016-Feb-04 16:31N 60°08' E 026°29'0 0.0
2016-Feb-04 15:31N 60°08' E 026°29'0 0.0
2016-Feb-04 14:31N 60°08' E 026°29'0 0.0
2016-Feb-04 13:31N 60°08' E 026°29'0 0.0
2016-Feb-04 12:31N 60°08' E 026°29'0 0.0
2016-Feb-04 11:31N 60°08' E 026°29'0 0.0
2016-Feb-04 10:31N 60°08' E 026°29'0 0.0
2016-Feb-04 09:31N 60°08' E 026°29'0 0.0
2016-Feb-04 08:19N 60°08' E 026°29'0 0.0
2016-Feb-04 07:31N 60°08' E 026°29'0 0.0
2016-Feb-04 06:31N 60°08' E 026°29'0 0.0
2016-Feb-04 05:31N 60°08' E 026°29'0 0.0
2016-Feb-04 04:31N 60°08' E 026°29'0 0.0
2016-Feb-04 03:31N 60°08' E 026°29'0 0.0
2016-Feb-04 02:25N 60°08' E 026°29'0 0.0
2016-Feb-04 01:31N 60°08' E 026°29'0 0.0
2016-Feb-04 00:31N 60°08' E 026°29'0 0.0
2016-Feb-03 23:31N 60°08' E 026°29'0 0.0
2016-Feb-03 22:31N 60°08' E 026°29'0 0.0
2016-Feb-03 21:31N 60°08' E 026°29'0 0.0
2016-Feb-03 20:31N 60°08' E 026°29'0 0.0
2016-Feb-03 19:31N 60°08' E 026°29'0 0.0
2016-Feb-03 18:31N 60°08' E 026°29'7 6.8
2016-Feb-03 17:33N 60°05' E 026°40'1111.2
2016-Feb-03 16:33N 59°59' E 026°59'1211.5
2016-Feb-03 15:33N 60°04' E 027°21'1211.9
2016-Feb-03 14:31N 60°11' E 027°41'1010.6
2016-Feb-03 13:33N 60°10' E 028°02'1211.6
2016-Feb-03 12:33N 60°05' E 028°24'1211.6
2016-Feb-03 11:33N 60°03' E 028°46'1211.8
2016-Feb-03 10:33N 60°02' E 029°10'2110.2
2016-Feb-03 08:33N 59°57' E 029°50'1111.0
2016-Feb-03 07:33N 59°53' E 030°10'1 0.5
2016-Feb-03 06:31N 59°53' E 030°11'0 0.0
2016-Feb-03 05:31N 59°53' E 030°11'0 0.0
2016-Feb-03 04:31N 59°53' E 030°11'0 0.0
2016-Feb-03 03:31N 59°53' E 030°11'0 0.0
2016-Feb-03 02:31N 59°53' E 030°11'0 0.0
2016-Feb-03 01:31N 59°53' E 030°11'0 0.0
2016-Feb-03 00:31N 59°53' E 030°11'0 0.0
2016-Feb-02 23:31N 59°53' E 030°11'0 0.0
2016-Feb-02 22:31N 59°53' E 030°11'0 0.0
2016-Feb-02 21:31N 59°53' E 030°11'0 0.0
2016-Feb-02 20:31N 59°53' E 030°11'0 0.0
2016-Feb-02 19:31N 59°53' E 030°11'0 0.0
2016-Feb-02 18:28N 59°53' E 030°11'0 0.0
2016-Feb-02 17:31N 59°53' E 030°11'0 0.0
2016-Feb-02 16:31N 59°53' E 030°11'0 0.0
2016-Feb-02 15:31N 59°53' E 030°11'0 0.0
2016-Feb-02 14:31N 59°53' E 030°11'0 0.0
2016-Feb-02 13:31N 59°53' E 030°11'0 0.0
2016-Feb-02 12:31N 59°53' E 030°11'0 0.0
2016-Feb-02 11:31N 59°53' E 030°11'0 0.0
2016-Feb-02 10:31N 59°53' E 030°11'0 0.0
2016-Feb-02 09:31N 59°53' E 030°11'0 0.0
2016-Feb-02 08:31N 59°53' E 030°11'0 0.0
2016-Feb-02 07:31N 59°53' E 030°11'0 0.0
2016-Feb-02 06:31N 59°53' E 030°11'0 0.0
2016-Feb-02 05:33N 59°53' E 030°11'3 2.9
2016-Feb-02 04:33N 59°54' E 030°06'1010.1
2016-Feb-02 03:33N 59°58' E 029°47'23 7.3
2016-Feb-02 00:22N 60°02' E 029°02'1214.5
2016-Feb-01 23:33N 60°02' E 028°38'1413.7
2016-Feb-01 22:33N 60°08' E 028°13'1313.2
2016-Feb-01 21:34N 60°11' E 027°47'1211.8
2016-Feb-01 20:33N 60°05' E 027°27'2311.1
2016-Feb-01 18:30N 59°59' E 026°43'9 9.4
2016-Feb-01 17:33N 60°03' E 026°26'1211.6
2016-Feb-01 16:33N 60°15' E 026°26'9 8.7
2016-Feb-01 15:33N 60°22' E 026°17'3 2.5
2016-Feb-01 14:31N 60°25' E 026°15'0 0.0
2016-Feb-01 13:31N 60°25' E 026°15'0 0.0
2016-Feb-01 12:31N 60°25' E 026°15'0 0.0
2016-Feb-01 11:31N 60°25' E 026°15'0 0.0
2016-Feb-01 10:31N 60°25' E 026°15'0 0.0
2016-Feb-01 09:31N 60°25' E 026°15'0 0.0
2016-Feb-01 08:31N 60°25' E 026°15'0 0.0
2016-Feb-01 07:31N 60°25' E 026°15'0 0.0
2016-Feb-01 06:31N 60°25' E 026°15'3 2.7
2016-Feb-01 05:33N 60°23' E 026°17'1110.7
2016-Feb-01 04:33N 60°12' E 026°24'5 0.9
2016-Jan-31 23:23N 60°08' E 026°28'0 0.0
2016-Jan-31 22:23N 60°08' E 026°28'0 0.0
2016-Jan-31 21:32N 60°08' E 026°28'0 0.0
2016-Jan-31 20:29N 60°08' E 026°28'0 0.0
2016-Jan-31 19:32N 60°08' E 026°28'0 0.0
2016-Jan-31 18:32N 60°08' E 026°28'0 0.0
2016-Jan-31 17:32N 60°08' E 026°28'0 0.1
2016-Jan-31 16:32N 60°08' E 026°28'0 0.2
2016-Jan-31 15:32N 60°08' E 026°28'0 0.0
2016-Jan-31 14:26N 60°08' E 026°28'0 0.0
2016-Jan-31 13:32N 60°08' E 026°28'0 0.0
2016-Jan-31 12:32N 60°08' E 026°28'0 0.0
2016-Jan-31 11:32N 60°08' E 026°28'0 0.0
2016-Jan-31 10:32N 60°08' E 026°28'0 0.0
2016-Jan-31 09:32N 60°08' E 026°28'0 0.0
2016-Jan-31 08:32N 60°08' E 026°28'0 0.1
2016-Jan-31 07:29N 60°08' E 026°28'1 0.6
2016-Jan-31 06:23N 60°08' E 026°29'0 0.0
2016-Jan-31 05:29N 60°08' E 026°29'  
Track history (hours):
 
Tides and Currents Weather Stations Pressure Air Temp Water Temp Dewpoint Dewpoint Depression Visibility Wind Speed Wind Dir Waves Ship Positions

Eira

Last reported at 2016-Feb-10 04:32 UTC. Time now 2016-Feb-10 04:47 UTC.
Position N 60°09' E 026°29'.

Length 157 m; draft 9.2 m.

Type: Cargo ship. MMSI: 230935000.

Date/timePositionNaut miles runAvg speedWind from/ knotsBaromVisibWave heightAir tempDewpointWater temp
2016-Feb-10 04:32N 60°09' E 026°29'0 0.0
2016-Feb-10 02:23N 60°09' E 026°29'0 0.0
2016-Feb-09 23:20N 60°09' E 026°29'0 0.0
2016-Feb-09 21:23N 60°09' E 026°29'0 0.0
2016-Feb-09 16:26N 60°09' E 026°29'0 0.0
2016-Feb-09 15:29N 60°09' E 026°29'0 0.0
2016-Feb-09 14:32N 60°09' E 026°29'0 0.0
2016-Feb-09 08:32N 60°09' E 026°29'0 0.0
2016-Feb-09 07:32N 60°09' E 026°29'1 0.1
2016-Feb-09 00:28N 60°08' E 026°28'0 0.0
2016-Feb-08 23:25N 60°08' E 026°28'0 0.0
2016-Feb-08 16:28N 60°08' E 026°28'0 0.0
2016-Feb-08 09:34N 60°08' E 026°29'1 0.6
2016-Feb-08 08:33N 60°08' E 026°30'10 9.9
2016-Feb-08 07:33N 60°03' E 026°47'27 8.9
2016-Feb-08 04:33N 60°10' E 027°38'9 9.4
2016-Feb-08 03:33N 60°11' E 027°57'1010.4
2016-Feb-08 02:34N 60°08' E 028°17'1010.3
2016-Feb-08 01:34N 60°03' E 028°35'1010.3
2016-Feb-08 00:33N 60°02' E 028°56'29 9.6
2016-Feb-07 21:33N 59°57' E 029°52'10 9.9
2016-Feb-07 20:33N 59°53' E 030°11'0 0.3
2016-Feb-07 19:31N 59°53' E 030°11'0 0.0
2016-Feb-07 18:31N 59°53' E 030°11'0 0.0
2016-Feb-07 17:31N 59°53' E 030°11'0 0.0
2016-Feb-07 16:31N 59°53' E 030°11'0 0.0
2016-Feb-07 15:28N 59°53' E 030°11'0 0.0
2016-Feb-07 14:31N 59°53' E 030°11'0 0.0
2016-Feb-07 13:28N 59°53' E 030°11'0 0.0
2016-Feb-07 12:28N 59°53' E 030°11'0 0.0
2016-Feb-07 11:31N 59°53' E 030°11'0 0.0
2016-Feb-07 10:31N 59°53' E 030°11'0 0.0
2016-Feb-07 09:31N 59°53' E 030°11'0 0.0
2016-Feb-07 08:31N 59°53' E 030°11'0 0.0
2016-Feb-07 07:31N 59°53' E 030°11'0 0.0
2016-Feb-07 06:31N 59°53' E 030°11'0 0.0
2016-Feb-07 05:31N 59°53' E 030°11'0 0.0
2016-Feb-07 04:31N 59°53' E 030°11'0 0.1
2016-Feb-07 03:33N 59°53' E 030°11'8 7.8
2016-Feb-07 02:33N 59°56' E 029°57'22 9.8
2016-Feb-07 00:18N 60°02' E 029°14'911.9
2016-Feb-06 23:31N 60°02' E 028°55'1212.5
2016-Feb-06 22:33N 60°03' E 028°31'1212.3
2016-Feb-06 21:33N 60°08' E 028°09'1212.5
2016-Feb-06 20:33N 60°10' E 027°44'1513.1
2016-Feb-06 19:26N 60°03' E 027°19'1212.1
2016-Feb-06 18:26N 59°58' E 026°56'1111.7
2016-Feb-06 17:29N 59°59' E 026°34'8 8.3
2016-Feb-06 16:34N 60°06' E 026°27'3 2.4
2016-Feb-06 15:27N 60°08' E 026°28'0 0.0
2016-Feb-06 14:33N 60°08' E 026°28'0 0.0
2016-Feb-06 13:33N 60°08' E 026°28'0 0.0
2016-Feb-06 12:33N 60°08' E 026°28'0 0.0
2016-Feb-06 11:27N 60°08' E 026°28'0 0.0
2016-Feb-06 10:30N 60°08' E 026°28'0 0.1
2016-Feb-06 09:33N 60°08' E 026°28'0 0.1
2016-Feb-06 08:33N 60°08' E 026°28'0 0.0
2016-Feb-06 07:33N 60°08' E 026°28'0 0.0
2016-Feb-06 06:33N 60°08' E 026°29'0 0.0
2016-Feb-06 05:33N 60°08' E 026°29'0 0.1
2016-Feb-06 04:33N 60°08' E 026°29'0 0.0
2016-Feb-06 03:33N 60°08' E 026°29'0 0.0
2016-Feb-06 02:33N 60°08' E 026°29'0 0.1
2016-Feb-06 01:33N 60°08' E 026°29'0 0.0
2016-Feb-06 00:33N 60°08' E 026°29'0 0.0
2016-Feb-05 23:33N 60°08' E 026°28'0 0.1
2016-Feb-05 22:33N 60°08' E 026°28'0 0.2
2016-Feb-05 21:33N 60°08' E 026°28'0 0.4
2016-Feb-05 20:33N 60°08' E 026°28'0 0.2
2016-Feb-05 19:31N 60°08' E 026°28'0 0.0
2016-Feb-05 18:31N 60°08' E 026°29'0 0.0
2016-Feb-05 17:31N 60°08' E 026°29'0 0.0
2016-Feb-05 16:31N 60°08' E 026°29'0 0.0
2016-Feb-05 15:31N 60°08' E 026°29'0 0.0
2016-Feb-05 14:31N 60°08' E 026°29'0 0.0
2016-Feb-05 13:31N 60°08' E 026°29'0 0.0
2016-Feb-05 12:31N 60°08' E 026°29'0 0.0
2016-Feb-05 11:31N 60°08' E 026°29'0 0.0
2016-Feb-05 10:31N 60°08' E 026°29'0 0.0
2016-Feb-05 09:31N 60°08' E 026°29'0 0.0
2016-Feb-05 08:31N 60°08' E 026°29'0 0.0
2016-Feb-05 07:31N 60°08' E 026°29'0 0.0
2016-Feb-05 06:28N 60°08' E 026°29'0 0.0
2016-Feb-05 05:31N 60°08' E 026°29'0 0.0
2016-Feb-05 04:31N 60°08' E 026°29'0 0.0
2016-Feb-05 03:28N 60°08' E 026°29'0 0.0
2016-Feb-05 02:31N 60°08' E 026°29'0 0.0
2016-Feb-05 01:31N 60°08' E 026°29'0 0.0
2016-Feb-05 00:31N 60°08' E 026°29'0 0.0
2016-Feb-04 23:31N 60°08' E 026°29'0 0.0
2016-Feb-04 22:28N 60°08' E 026°29'0 0.0
2016-Feb-04 21:31N 60°08' E 026°29'0 0.0
2016-Feb-04 20:31N 60°08' E 026°29'0 0.0
2016-Feb-04 19:31N 60°08' E 026°29'0 0.0
2016-Feb-04 18:31N 60°08' E 026°29'0 0.0
2016-Feb-04 17:31N 60°08' E 026°29'0 0.0
2016-Feb-04 16:31N 60°08' E 026°29'0 0.0
2016-Feb-04 15:31N 60°08' E 026°29'0 0.0
2016-Feb-04 14:31N 60°08' E 026°29'0 0.0
2016-Feb-04 13:31N 60°08' E 026°29'0 0.0
2016-Feb-04 12:31N 60°08' E 026°29'0 0.0
2016-Feb-04 11:31N 60°08' E 026°29'0 0.0
2016-Feb-04 10:31N 60°08' E 026°29'0 0.0
2016-Feb-04 09:31N 60°08' E 026°29'0 0.0
2016-Feb-04 08:19N 60°08' E 026°29'0 0.0
2016-Feb-04 07:31N 60°08' E 026°29'0 0.0
2016-Feb-04 06:31N 60°08' E 026°29'0 0.0
2016-Feb-04 05:31N 60°08' E 026°29'0 0.0
2016-Feb-04 04:31N 60°08' E 026°29'0 0.0
2016-Feb-04 03:31N 60°08' E 026°29'0 0.0
2016-Feb-04 02:25N 60°08' E 026°29'0 0.0
2016-Feb-04 01:31N 60°08' E 026°29'0 0.0
2016-Feb-04 00:31N 60°08' E 026°29'0 0.0
2016-Feb-03 23:31N 60°08' E 026°29'0 0.0
2016-Feb-03 22:31N 60°08' E 026°29'0 0.0
2016-Feb-03 21:31N 60°08' E 026°29'0 0.0
2016-Feb-03 20:31N 60°08' E 026°29'0 0.0
2016-Feb-03 19:31N 60°08' E 026°29'0 0.0
2016-Feb-03 18:31N 60°08' E 026°29'7 6.8
2016-Feb-03 17:33N 60°05' E 026°40'1111.2
2016-Feb-03 16:33N 59°59' E 026°59'1211.5
2016-Feb-03 15:33N 60°04' E 027°21'1211.9
2016-Feb-03 14:31N 60°11' E 027°41'1010.6
2016-Feb-03 13:33N 60°10' E 028°02'1211.6
2016-Feb-03 12:33N 60°05' E 028°24'1211.6
2016-Feb-03 11:33N 60°03' E 028°46'1211.8
2016-Feb-03 10:33N 60°02' E 029°10'2110.2
2016-Feb-03 08:33N 59°57' E 029°50'1111.0
2016-Feb-03 07:33N 59°53' E 030°10'1 0.5
2016-Feb-03 06:31N 59°53' E 030°11'0 0.0
2016-Feb-03 05:31N 59°53' E 030°11'0 0.0
2016-Feb-03 04:31N 59°53' E 030°11'0 0.0
2016-Feb-03 03:31N 59°53' E 030°11'0 0.0
2016-Feb-03 02:31N 59°53' E 030°11'0 0.0
2016-Feb-03 01:31N 59°53' E 030°11'0 0.0
2016-Feb-03 00:31N 59°53' E 030°11'0 0.0
2016-Feb-02 23:31N 59°53' E 030°11'0 0.0
2016-Feb-02 22:31N 59°53' E 030°11'0 0.0
2016-Feb-02 21:31N 59°53' E 030°11'0 0.0
2016-Feb-02 20:31N 59°53' E 030°11'0 0.0
2016-Feb-02 19:31N 59°53' E 030°11'0 0.0
2016-Feb-02 18:28N 59°53' E 030°11'0 0.0
2016-Feb-02 17:31N 59°53' E 030°11'0 0.0
2016-Feb-02 16:31N 59°53' E 030°11'0 0.0
2016-Feb-02 15:31N 59°53' E 030°11'0 0.0
2016-Feb-02 14:31N 59°53' E 030°11'0 0.0
2016-Feb-02 13:31N 59°53' E 030°11'0 0.0
2016-Feb-02 12:31N 59°53' E 030°11'0 0.0
2016-Feb-02 11:31N 59°53' E 030°11'0 0.0
2016-Feb-02 10:31N 59°53' E 030°11'0 0.0
2016-Feb-02 09:31N 59°53' E 030°11'0 0.0
2016-Feb-02 08:31N 59°53' E 030°11'0 0.0
2016-Feb-02 07:31N 59°53' E 030°11'0 0.0
2016-Feb-02 06:31N 59°53' E 030°11'0 0.0
2016-Feb-02 05:33N 59°53' E 030°11'3 2.9
2016-Feb-02 04:33N 59°54' E 030°06'1010.1
2016-Feb-02 03:33N 59°58' E 029°47'23 7.3
2016-Feb-02 00:22N 60°02' E 029°02'1214.5
2016-Feb-01 23:33N 60°02' E 028°38'1413.7
2016-Feb-01 22:33N 60°08' E 028°13'1313.2
2016-Feb-01 21:34N 60°11' E 027°47'1211.8
2016-Feb-01 20:33N 60°05' E 027°27'2311.1
2016-Feb-01 18:30N 59°59' E 026°43'9 9.4
2016-Feb-01 17:33N 60°03' E 026°26'1211.6
2016-Feb-01 16:33N 60°15' E 026°26'9 8.7
2016-Feb-01 15:33N 60°22' E 026°17'3 2.5
2016-Feb-01 14:31N 60°25' E 026°15'0 0.0
2016-Feb-01 13:31N 60°25' E 026°15'0 0.0
2016-Feb-01 12:31N 60°25' E 026°15'0 0.0
2016-Feb-01 11:31N 60°25' E 026°15'0 0.0
2016-Feb-01 10:31N 60°25' E 026°15'0 0.0
2016-Feb-01 09:31N 60°25' E 026°15'0 0.0
2016-Feb-01 08:31N 60°25' E 026°15'0 0.0
2016-Feb-01 07:31N 60°25' E 026°15'0 0.0
2016-Feb-01 06:31N 60°25' E 026°15'3 2.7
2016-Feb-01 05:33N 60°23' E 026°17'1110.7
2016-Feb-01 04:33N 60°12' E 026°24'5 0.9
2016-Jan-31 23:23N 60°08' E 026°28'0 0.0
2016-Jan-31 22:23N 60°08' E 026°28'0 0.0
2016-Jan-31 21:32N 60°08' E 026°28'0 0.0
2016-Jan-31 20:29N 60°08' E 026°28'0 0.0
2016-Jan-31 19:32N 60°08' E 026°28'0 0.0
2016-Jan-31 18:32N 60°08' E 026°28'0 0.0
2016-Jan-31 17:32N 60°08' E 026°28'0 0.1
2016-Jan-31 16:32N 60°08' E 026°28'0 0.2
2016-Jan-31 15:32N 60°08' E 026°28'0 0.0
2016-Jan-31 14:26N 60°08' E 026°28'0 0.0
2016-Jan-31 13:32N 60°08' E 026°28'0 0.0
2016-Jan-31 12:32N 60°08' E 026°28'0 0.0
2016-Jan-31 11:32N 60°08' E 026°28'0 0.0
2016-Jan-31 10:32N 60°08' E 026°28'0 0.0
2016-Jan-31 09:32N 60°08' E 026°28'0 0.0
2016-Jan-31 08:32N 60°08' E 026°28'0 0.1
2016-Jan-31 07:29N 60°08' E 026°28'1 0.6
2016-Jan-31 06:23N 60°08' E 026°29'0 0.0
2016-Jan-31 05:29N 60°08' E 026°29'  

Dump ship's entire track history